sensor_id;sensor_type;location;lat;lon;timestamp;pressure;altitude;pressure_sealevel;temperature;humidity
21863;BME280;11096;51.338;12.524;2023-05-12T00:00:38;100106.38;;;13.77;64.61
21863;BME280;11096;51.338;12.524;2023-05-12T00:03:04;100110.06;;;13.74;64.59
21863;BME280;11096;51.338;12.524;2023-05-12T00:05:30;100113.50;;;13.75;65.04
21863;BME280;11096;51.338;12.524;2023-05-12T00:07:55;100115.03;;;13.78;65.02
21863;BME280;11096;51.338;12.524;2023-05-12T00:10:21;100113.75;;;13.72;65.47
21863;BME280;11096;51.338;12.524;2023-05-12T00:12:47;100119.97;;;13.71;65.50
21863;BME280;11096;51.338;12.524;2023-05-12T00:15:12;100110.44;;;13.70;64.97
21863;BME280;11096;51.338;12.524;2023-05-12T00:17:38;100106.63;;;13.74;64.61
21863;BME280;11096;51.338;12.524;2023-05-12T00:20:04;100109.38;;;13.72;64.73
21863;BME280;11096;51.338;12.524;2023-05-12T00:22:30;100113.75;;;13.72;64.32
21863;BME280;11096;51.338;12.524;2023-05-12T00:24:55;100113.31;;;13.67;64.54
21863;BME280;11096;51.338;12.524;2023-05-12T00:27:21;100110.19;;;13.73;64.12
21863;BME280;11096;51.338;12.524;2023-05-12T00:29:46;100110.63;;;13.99;63.43
21863;BME280;11096;51.338;12.524;2023-05-12T00:32:12;100113.50;;;13.75;63.83
21863;BME280;11096;51.338;12.524;2023-05-12T00:34:37;100115.09;;;13.66;63.85
21863;BME280;11096;51.338;12.524;2023-05-12T00:37:03;100113.44;;;13.65;64.13
21863;BME280;11096;51.338;12.524;2023-05-12T00:39:28;100114.03;;;13.69;63.80
21863;BME280;11096;51.338;12.524;2023-05-12T00:41:57;100115.66;;;13.70;63.63
21863;BME280;11096;51.338;12.524;2023-05-12T00:44:23;100118.16;;;13.71;64.66
21863;BME280;11096;51.338;12.524;2023-05-12T00:46:49;100114.03;;;13.69;64.77
21863;BME280;11096;51.338;12.524;2023-05-12T00:49:15;100122.50;;;13.61;66.00
21863;BME280;11096;51.338;12.524;2023-05-12T00:51:41;100118.53;;;14.39;65.34
21863;BME280;11096;51.338;12.524;2023-05-12T00:54:07;100117.22;;;14.45;64.96
21863;BME280;11096;51.338;12.524;2023-05-12T00:56:33;100125.75;;;14.47;65.02
21863;BME280;11096;51.338;12.524;2023-05-12T00:59:04;100124.91;;;14.47;64.42
21863;BME280;11096;51.338;12.524;2023-05-12T01:01:30;100114.16;;;14.40;63.85
21863;BME280;11096;51.338;12.524;2023-05-12T01:03:56;100132.34;;;13.58;66.23
21863;BME280;11096;51.338;12.524;2023-05-12T01:09:06;100133.25;;;13.36;67.52
21863;BME280;11096;51.338;12.524;2023-05-12T01:11:32;100129.81;;;13.24;68.99
21863;BME280;11096;51.338;12.524;2023-05-12T01:13:58;100134.78;;;13.91;69.20
21863;BME280;11096;51.338;12.524;2023-05-12T01:16:27;100136.06;;;14.49;67.68
21863;BME280;11096;51.338;12.524;2023-05-12T01:18:54;100136.84;;;13.35;69.84
21863;BME280;11096;51.338;12.524;2023-05-12T01:21:20;100146.53;;;13.21;70.79
21863;BME280;11096;51.338;12.524;2023-05-12T01:23:50;100142.41;;;13.19;71.34
21863;BME280;11096;51.338;12.524;2023-05-12T01:26:18;100134.81;;;13.16;71.45
21863;BME280;11096;51.338;12.524;2023-05-12T01:28:45;100140.03;;;13.16;70.97
21863;BME280;11096;51.338;12.524;2023-05-12T01:31:12;100144.44;;;13.15;71.57
21863;BME280;11096;51.338;12.524;2023-05-12T01:33:37;100140.66;;;13.08;72.34
21863;BME280;11096;51.338;12.524;2023-05-12T01:36:04;100143.28;;;13.08;72.80
21863;BME280;11096;51.338;12.524;2023-05-12T01:38:30;100133.56;;;12.99;74.27
21863;BME280;11096;51.338;12.524;2023-05-12T01:40:55;100135.91;;;13.02;74.49
21863;BME280;11096;51.338;12.524;2023-05-12T01:43:21;100129.16;;;12.99;75.19
21863;BME280;11096;51.338;12.524;2023-05-12T01:45:46;100131.31;;;12.94;75.45
21863;BME280;11096;51.338;12.524;2023-05-12T01:48:12;100143.41;;;12.95;75.71
21863;BME280;11096;51.338;12.524;2023-05-12T01:50:37;100148.63;;;12.95;75.21
21863;BME280;11096;51.338;12.524;2023-05-12T01:53:02;100140.09;;;12.93;75.13
21863;BME280;11096;51.338;12.524;2023-05-12T01:55:28;100134.19;;;12.80;76.65
21863;BME280;11096;51.338;12.524;2023-05-12T01:57:53;100133.94;;;12.83;77.61
21863;BME280;11096;51.338;12.524;2023-05-12T02:00:19;100126.38;;;12.80;77.82
21863;BME280;11096;51.338;12.524;2023-05-12T02:02:45;100129.66;;;12.82;77.03
21863;BME280;11096;51.338;12.524;2023-05-12T02:05:10;100131.91;;;12.86;76.45
21863;BME280;11096;51.338;12.524;2023-05-12T02:07:36;100127.16;;;12.92;75.76
21863;BME280;11096;51.338;12.524;2023-05-12T02:10:02;100130.00;;;12.88;74.97
21863;BME280;11096;51.338;12.524;2023-05-12T02:12:28;100128.94;;;12.91;74.47
21863;BME280;11096;51.338;12.524;2023-05-12T02:14:53;100140.81;;;12.95;73.64
21863;BME280;11096;51.338;12.524;2023-05-12T02:17:18;100138.06;;;12.97;74.04
21863;BME280;11096;51.338;12.524;2023-05-12T02:19:44;100142.44;;;12.96;73.74
21863;BME280;11096;51.338;12.524;2023-05-12T02:22:09;100146.28;;;12.92;74.46
21863;BME280;11096;51.338;12.524;2023-05-12T02:24:34;100143.66;;;12.70;77.24
21863;BME280;11096;51.338;12.524;2023-05-12T02:27:00;100139.41;;;12.68;79.36
21863;BME280;11096;51.338;12.524;2023-05-12T02:29:25;100146.06;;;12.73;80.62
21863;BME280;11096;51.338;12.524;2023-05-12T02:31:50;100146.03;;;12.50;82.46
21863;BME280;11096;51.338;12.524;2023-05-12T02:34:16;100152.09;;;12.73;82.96
21863;BME280;11096;51.338;12.524;2023-05-12T02:36:41;100144.38;;;12.72;82.67
21863;BME280;11096;51.338;12.524;2023-05-12T02:39:07;100139.50;;;12.67;83.13
21863;BME280;11096;51.338;12.524;2023-05-12T02:41:32;100144.63;;;12.46;85.93
21863;BME280;11096;51.338;12.524;2023-05-12T02:43:58;100142.72;;;12.48;85.84
21863;BME280;11096;51.338;12.524;2023-05-12T02:46:23;100136.09;;;12.44;83.74
21863;BME280;11096;51.338;12.524;2023-05-12T02:48:49;100139.88;;;12.40;83.78
21863;BME280;11096;51.338;12.524;2023-05-12T02:51:14;100144.75;;;12.56;84.22
21863;BME280;11096;51.338;12.524;2023-05-12T02:53:40;100146.16;;;12.82;83.44
21863;BME280;11096;51.338;12.524;2023-05-12T02:56:05;100149.34;;;12.75;82.50
21863;BME280;11096;51.338;12.524;2023-05-12T02:58:31;100144.38;;;12.72;82.04
21863;BME280;11096;51.338;12.524;2023-05-12T03:00:57;100144.03;;;12.76;81.46
21863;BME280;11096;51.338;12.524;2023-05-12T03:03:22;100136.31;;;12.63;83.81
21863;BME280;11096;51.338;12.524;2023-05-12T03:05:47;100137.03;;;12.65;84.17
21863;BME280;11096;51.338;12.524;2023-05-12T03:08:15;100144.25;;;12.62;84.08
21863;BME280;11096;51.338;12.524;2023-05-12T03:10:40;100140.84;;;12.73;83.02
21863;BME280;11096;51.338;12.524;2023-05-12T03:13:07;100138.69;;;12.66;82.77
21863;BME280;11096;51.338;12.524;2023-05-12T03:15:33;100146.97;;;12.72;82.53
21863;BME280;11096;51.338;12.524;2023-05-12T03:17:58;100143.78;;;12.57;82.99
21863;BME280;11096;51.338;12.524;2023-05-12T03:20:23;100143.66;;;12.47;82.60
21863;BME280;11096;51.338;12.524;2023-05-12T03:22:49;100150.06;;;12.43;82.87
21863;BME280;11096;51.338;12.524;2023-05-12T03:25:14;100150.53;;;12.37;82.76
21863;BME280;11096;51.338;12.524;2023-05-12T03:27:40;100140.94;;;12.37;83.03
21863;BME280;11096;51.338;12.524;2023-05-12T03:30:06;100149.09;;;12.33;83.93
21863;BME280;11096;51.338;12.524;2023-05-12T03:32:32;100148.88;;;12.36;82.56
21863;BME280;11096;51.338;12.524;2023-05-12T03:34:57;100148.53;;;12.40;82.58
21863;BME280;11096;51.338;12.524;2023-05-12T03:37:23;100144.97;;;12.41;82.96
21863;BME280;11096;51.338;12.524;2023-05-12T03:39:48;100142.47;;;12.40;83.52
21863;BME280;11096;51.338;12.524;2023-05-12T03:42:14;100151.00;;;12.42;82.24
21863;BME280;11096;51.338;12.524;2023-05-12T03:44:39;100145.06;;;12.40;81.48
21863;BME280;11096;51.338;12.524;2023-05-12T03:47:05;100154.69;;;12.39;80.84
21863;BME280;11096;51.338;12.524;2023-05-12T03:49:30;100152.66;;;12.32;82.52
21863;BME280;11096;51.338;12.524;2023-05-12T03:51:56;100147.09;;;12.36;84.32
21863;BME280;11096;51.338;12.524;2023-05-12T03:54:21;100139.38;;;12.35;85.49
21863;BME280;11096;51.338;12.524;2023-05-12T03:56:46;100140.59;;;12.31;86.90
21863;BME280;11096;51.338;12.524;2023-05-12T03:59:12;100142.69;;;12.25;88.67
21863;BME280;11096;51.338;12.524;2023-05-12T04:01:37;100141.16;;;12.34;87.67
21863;BME280;11096;51.338;12.524;2023-05-12T04:04:03;100143.66;;;12.36;87.93
21863;BME280;11096;51.338;12.524;2023-05-12T04:06:28;100142.25;;;12.43;87.27
21863;BME280;11096;51.338;12.524;2023-05-12T04:08:55;100146.84;;;12.39;86.46
21863;BME280;11096;51.338;12.524;2023-05-12T04:11:20;100145.06;;;12.40;85.43
21863;BME280;11096;51.338;12.524;2023-05-12T04:13:46;100153.16;;;12.48;86.28
21863;BME280;11096;51.338;12.524;2023-05-12T04:16:11;100146.88;;;12.62;84.37
21863;BME280;11096;51.338;12.524;2023-05-12T04:18:37;100145.44;;;12.69;84.71
21863;BME280;11096;51.338;12.524;2023-05-12T04:21:02;100148.28;;;12.77;84.05
21863;BME280;11096;51.338;12.524;2023-05-12T04:23:28;100141.78;;;12.83;83.46
21863;BME280;11096;51.338;12.524;2023-05-12T04:25:53;100143.78;;;12.91;83.16
21863;BME280;11096;51.338;12.524;2023-05-12T04:28:19;100144.13;;;12.97;81.37
21863;BME280;11096;51.338;12.524;2023-05-12T04:30:44;100150.53;;;13.04;80.42
21863;BME280;11096;51.338;12.524;2023-05-12T04:33:10;100149.31;;;13.08;79.00
21863;BME280;11096;51.338;12.524;2023-05-12T04:35:35;100143.25;;;13.19;78.10
21863;BME280;11096;51.338;12.524;2023-05-12T04:38:01;100153.09;;;13.27;78.12
21863;BME280;11096;51.338;12.524;2023-05-12T04:40:27;100151.78;;;13.32;76.91
21863;BME280;11096;51.338;12.524;2023-05-12T04:42:53;100152.22;;;13.38;75.63
21863;BME280;11096;51.338;12.524;2023-05-12T04:45:18;100157.66;;;13.46;74.88
21863;BME280;11096;51.338;12.524;2023-05-12T04:47:44;100158.13;;;13.51;74.34
21863;BME280;11096;51.338;12.524;2023-05-12T04:50:09;100157.72;;;13.67;73.97
21863;BME280;11096;51.338;12.524;2023-05-12T04:52:35;100156.03;;;13.66;73.46
21863;BME280;11096;51.338;12.524;2023-05-12T04:55:01;100157.91;;;13.75;72.54
21863;BME280;11096;51.338;12.524;2023-05-12T04:57:26;100165.19;;;13.71;71.62
21863;BME280;11096;51.338;12.524;2023-05-12T04:59:52;100166.81;;;13.72;71.30
21863;BME280;11096;51.338;12.524;2023-05-12T05:02:18;100157.47;;;13.70;70.89
21863;BME280;11096;51.338;12.524;2023-05-12T05:04:43;100158.63;;;13.77;70.45
21863;BME280;11096;51.338;12.524;2023-05-12T05:07:09;100154.03;;;13.90;70.17
21863;BME280;11096;51.338;12.524;2023-05-12T05:09:34;100159.00;;;13.93;69.05
21863;BME280;11096;51.338;12.524;2023-05-12T05:11:59;100157.59;;;13.89;68.46
21863;BME280;11096;51.338;12.524;2023-05-12T05:14:25;100161.47;;;13.95;69.03
21863;BME280;11096;51.338;12.524;2023-05-12T05:16:51;100161.69;;;14.03;68.66
21863;BME280;11096;51.338;12.524;2023-05-12T05:19:16;100161.50;;;14.16;67.96
21863;BME280;11096;51.338;12.524;2023-05-12T05:21:42;100169.66;;;14.23;68.06
21863;BME280;11096;51.338;12.524;2023-05-12T05:24:07;100180.66;;;14.26;67.88
21863;BME280;11096;51.338;12.524;2023-05-12T05:26:33;100181.66;;;14.25;67.52
21863;BME280;11096;51.338;12.524;2023-05-12T05:28:59;100182.78;;;14.32;67.27
21863;BME280;11096;51.338;12.524;2023-05-12T05:31:25;100181.06;;;14.22;66.89
21863;BME280;11096;51.338;12.524;2023-05-12T05:33:55;100182.78;;;14.32;66.46
21863;BME280;11096;51.338;12.524;2023-05-12T05:36:21;100185.97;;;14.36;66.24
21863;BME280;11096;51.338;12.524;2023-05-12T05:38:47;100185.03;;;14.47;66.57
21863;BME280;11096;51.338;12.524;2023-05-12T05:41:12;100189.97;;;14.61;65.85
21863;BME280;11096;51.338;12.524;2023-05-12T05:43:38;100184.75;;;14.61;65.58
21863;BME280;11096;51.338;12.524;2023-05-12T05:46:03;100186.47;;;14.81;65.13
21863;BME280;11096;51.338;12.524;2023-05-12T05:48:29;100184.16;;;14.88;64.65
21863;BME280;11096;51.338;12.524;2023-05-12T05:50:54;100189.31;;;14.99;64.44
21863;BME280;11096;51.338;12.524;2023-05-12T05:53:19;100187.28;;;15.22;64.30
21863;BME280;11096;51.338;12.524;2023-05-12T05:55:46;100185.78;;;15.30;63.66
21863;BME280;11096;51.338;12.524;2023-05-12T05:58:12;100193.94;;;15.36;62.48
21863;BME280;11096;51.338;12.524;2023-05-12T06:00:39;100184.00;;;15.30;62.63
21863;BME280;11096;51.338;12.524;2023-05-12T06:03:04;100196.41;;;15.38;62.58
21863;BME280;11096;51.338;12.524;2023-05-12T06:05:30;100191.59;;;15.62;61.99
21863;BME280;11096;51.338;12.524;2023-05-12T06:07:55;100191.66;;;15.92;61.65
21863;BME280;11096;51.338;12.524;2023-05-12T06:10:21;100195.63;;;16.15;61.66
21863;BME280;11096;51.338;12.524;2023-05-12T06:12:46;100199.31;;;16.42;61.38
21863;BME280;11096;51.338;12.524;2023-05-12T06:15:12;100194.53;;;16.65;60.65
21863;BME280;11096;51.338;12.524;2023-05-12T06:17:37;100194.09;;;16.69;59.30
21863;BME280;11096;51.338;12.524;2023-05-12T06:20:03;100197.56;;;16.80;59.09
21863;BME280;11096;51.338;12.524;2023-05-12T06:22:29;100201.47;;;17.03;58.78
21863;BME280;11096;51.338;12.524;2023-05-12T06:24:55;100210.97;;;17.04;57.58
21863;BME280;11096;51.338;12.524;2023-05-12T06:27:21;100211.06;;;17.58;56.90
21863;BME280;11096;51.338;12.524;2023-05-12T06:29:46;100205.75;;;17.86;55.76
21863;BME280;11096;51.338;12.524;2023-05-12T06:32:11;100217.31;;;17.75;55.63
21863;BME280;11096;51.338;12.524;2023-05-12T06:34:37;100219.50;;;17.79;54.72
21863;BME280;11096;51.338;12.524;2023-05-12T06:37:02;100229.53;;;17.48;53.83
21863;BME280;11096;51.338;12.524;2023-05-12T06:39:28;100219.97;;;17.93;53.48
21863;BME280;11096;51.338;12.524;2023-05-12T06:41:53;100222.75;;;18.35;52.03
21863;BME280;11096;51.338;12.524;2023-05-12T06:44:18;100219.91;;;19.74;49.98
21863;BME280;11096;51.338;12.524;2023-05-12T06:46:44;100212.28;;;19.63;49.93
21863;BME280;11096;51.338;12.524;2023-05-12T06:49:09;100212.72;;;18.91;50.22
21863;BME280;11096;51.338;12.524;2023-05-12T06:51:35;100209.56;;;18.87;49.73
21863;BME280;11096;51.338;12.524;2023-05-12T06:54:00;100205.44;;;18.85;49.48
21863;BME280;11096;51.338;12.524;2023-05-12T06:56:26;100206.16;;;18.95;49.51
21863;BME280;11096;51.338;12.524;2023-05-12T06:58:56;100203.97;;;19.25;48.33
21863;BME280;11096;51.338;12.524;2023-05-12T07:01:27;100203.69;;;19.44;48.06
21863;BME280;11096;51.338;12.524;2023-05-12T07:03:53;100206.19;;;19.62;47.88
21863;BME280;11096;51.338;12.524;2023-05-12T07:06:19;100206.03;;;19.88;47.53
21863;BME280;11096;51.338;12.524;2023-05-12T07:08:44;100207.81;;;20.45;48.21
21863;BME280;11096;51.338;12.524;2023-05-12T07:11:09;100202.88;;;19.60;47.58
21863;BME280;11096;51.338;12.524;2023-05-12T07:13:35;100202.69;;;21.08;46.02
21863;BME280;11096;51.338;12.524;2023-05-12T07:16:02;100197.59;;;20.58;45.96
21863;BME280;11096;51.338;12.524;2023-05-12T07:18:27;100200.31;;;19.77;46.32
21863;BME280;11096;51.338;12.524;2023-05-12T07:20:53;100201.09;;;19.93;46.95
21863;BME280;11096;51.338;12.524;2023-05-12T07:23:18;100197.56;;;19.44;46.60
21863;BME280;11096;51.338;12.524;2023-05-12T07:25:44;100203.75;;;19.93;47.74
21863;BME280;11096;51.338;12.524;2023-05-12T07:28:09;100198.44;;;20.18;47.21
21863;BME280;11096;51.338;12.524;2023-05-12T07:30:35;100196.28;;;20.46;46.18
21863;BME280;11096;51.338;12.524;2023-05-12T07:33:01;100205.13;;;21.09;45.27
21863;BME280;11096;51.338;12.524;2023-05-12T07:35:27;100194.91;;;20.67;45.20
21863;BME280;11096;51.338;12.524;2023-05-12T07:37:52;100201.94;;;20.91;46.32
21863;BME280;11096;51.338;12.524;2023-05-12T07:40:18;100194.88;;;20.83;45.04
21863;BME280;11096;51.338;12.524;2023-05-12T07:42:43;100194.06;;;21.14;45.82
21863;BME280;11096;51.338;12.524;2023-05-12T07:45:09;100195.94;;;21.36;44.15
21863;BME280;11096;51.338;12.524;2023-05-12T07:47:34;100198.75;;;21.35;43.63
21863;BME280;11096;51.338;12.524;2023-05-12T07:50:00;100194.31;;;20.96;43.49
21863;BME280;11096;51.338;12.524;2023-05-12T07:52:25;100198.16;;;21.16;42.93
21863;BME280;11096;51.338;12.524;2023-05-12T07:54:50;100194.09;;;21.45;41.63
21863;BME280;11096;51.338;12.524;2023-05-12T07:57:16;100189.97;;;22.41;40.39
21863;BME280;11096;51.338;12.524;2023-05-12T07:59:41;100185.16;;;23.84;36.45
21863;BME280;11096;51.338;12.524;2023-05-12T08:02:07;100190.16;;;22.25;38.98
21863;BME280;11096;51.338;12.524;2023-05-12T08:04:32;100192.38;;;21.75;39.71
21863;BME280;11096;51.338;12.524;2023-05-12T08:06:58;100188.88;;;21.98;39.67
21863;BME280;11096;51.338;12.524;2023-05-12T08:09:23;100187.59;;;21.94;39.55
21863;BME280;11096;51.338;12.524;2023-05-12T08:11:49;100193.31;;;21.28;39.03
21863;BME280;11096;51.338;12.524;2023-05-12T08:14:14;100195.97;;;20.97;39.65
21863;BME280;11096;51.338;12.524;2023-05-12T08:16:40;100203.19;;;21.42;40.11
21863;BME280;11096;51.338;12.524;2023-05-12T08:19:07;100198.06;;;21.41;39.31
21863;BME280;11096;51.338;12.524;2023-05-12T08:21:32;100206.88;;;22.40;40.42
21863;BME280;11096;51.338;12.524;2023-05-12T08:23:57;100204.59;;;22.97;39.11
21863;BME280;11096;51.338;12.524;2023-05-12T08:26:23;100207.72;;;23.00;37.45
21863;BME280;11096;51.338;12.524;2023-05-12T08:28:49;100214.28;;;22.30;37.73
21863;BME280;11096;51.338;12.524;2023-05-12T08:31:14;100209.22;;;21.97;38.24
21863;BME280;11096;51.338;12.524;2023-05-12T08:33:40;100217.00;;;21.99;38.41
21863;BME280;11096;51.338;12.524;2023-05-12T08:36:06;100216.19;;;21.75;37.87
21863;BME280;11096;51.338;12.524;2023-05-12T08:38:31;100213.63;;;22.05;38.58
21863;BME280;11096;51.338;12.524;2023-05-12T08:43:42;100212.75;;;22.13;37.94
21863;BME280;11096;51.338;12.524;2023-05-12T08:46:08;100213.53;;;22.36;37.87
21863;BME280;11096;51.338;12.524;2023-05-12T08:48:37;100213.53;;;23.47;37.50
21863;BME280;11096;51.338;12.524;2023-05-12T08:51:05;100217.56;;;24.29;36.96
21863;BME280;11096;51.338;12.524;2023-05-12T08:53:35;100217.00;;;24.61;36.12
21863;BME280;11096;51.338;12.524;2023-05-12T08:56:02;100216.34;;;24.31;35.66
21863;BME280;11096;51.338;12.524;2023-05-12T08:58:30;100209.84;;;24.62;34.78
21863;BME280;11096;51.338;12.524;2023-05-12T09:00:56;100215.38;;;26.37;33.88
21863;BME280;11096;51.338;12.524;2023-05-12T09:03:25;100207.63;;;27.45;31.91
21863;BME280;11096;51.338;12.524;2023-05-12T09:05:52;100207.47;;;30.69;28.43
21863;BME280;11096;51.338;12.524;2023-05-12T09:08:18;100194.34;;;32.60;26.48
21863;BME280;11096;51.338;12.524;2023-05-12T09:10:44;100200.16;;;32.74;25.00
21863;BME280;11096;51.338;12.524;2023-05-12T09:13:22;100194.94;;;33.65;24.48
21863;BME280;11096;51.338;12.524;2023-05-12T09:15:48;100185.22;;;35.74;22.24
21863;BME280;11096;51.338;12.524;2023-05-12T09:18:15;100197.47;;;37.56;20.89
21863;BME280;11096;51.338;12.524;2023-05-12T09:20:41;100195.44;;;36.18;22.18
21863;BME280;11096;51.338;12.524;2023-05-12T09:23:17;100193.47;;;37.04;21.59
21863;BME280;11096;51.338;12.524;2023-05-12T09:25:43;100186.06;;;40.02;19.21
21863;BME280;11096;51.338;12.524;2023-05-12T09:28:11;100185.13;;;37.74;20.41
21863;BME280;11096;51.338;12.524;2023-05-12T09:30:36;100182.06;;;37.46;20.80
21863;BME280;11096;51.338;12.524;2023-05-12T09:33:10;100177.31;;;34.95;21.60
21863;BME280;11096;51.338;12.524;2023-05-12T09:35:43;100184.00;;;37.01;21.06
21863;BME280;11096;51.338;12.524;2023-05-12T09:38:10;100184.09;;;36.21;20.89
21863;BME280;11096;51.338;12.524;2023-05-12T09:40:37;100184.41;;;35.83;21.21
21863;BME280;11096;51.338;12.524;2023-05-12T09:43:05;100186.78;;;34.35;21.93
21863;BME280;11096;51.338;12.524;2023-05-12T09:45:35;100178.81;;;38.08;19.56
21863;BME280;11096;51.338;12.524;2023-05-12T09:48:08;100177.09;;;40.15;19.23
21863;BME280;11096;51.338;12.524;2023-05-12T09:50:41;100173.66;;;40.51;18.31
21863;BME280;11096;51.338;12.524;2023-05-12T09:53:08;100176.97;;;38.27;19.39
21863;BME280;11096;51.338;12.524;2023-05-12T09:55:35;100173.44;;;37.44;20.00
21863;BME280;11096;51.338;12.524;2023-05-12T09:58:01;100174.41;;;37.24;20.20
21863;BME280;11096;51.338;12.524;2023-05-12T10:00:31;100171.69;;;36.09;18.67
21863;BME280;11096;51.338;12.524;2023-05-12T10:02:57;100176.97;;;34.71;21.60
21863;BME280;11096;51.338;12.524;2023-05-12T10:05:23;100171.47;;;37.50;19.84
21863;BME280;11096;51.338;12.524;2023-05-12T10:07:50;100170.03;;;35.01;20.16
21863;BME280;11096;51.338;12.524;2023-05-12T10:10:22;100165.97;;;36.21;20.44
21863;BME280;11096;51.338;12.524;2023-05-12T10:12:50;100172.78;;;37.87;19.70
21863;BME280;11096;51.338;12.524;2023-05-12T10:15:16;100178.47;;;37.61;18.55
21863;BME280;11096;51.338;12.524;2023-05-12T10:17:43;100158.44;;;35.52;20.29
21863;BME280;11096;51.338;12.524;2023-05-12T10:20:09;100172.06;;;36.47;20.96
21863;BME280;11096;51.338;12.524;2023-05-12T10:22:37;100167.66;;;35.40;20.35
21863;BME280;11096;51.338;12.524;2023-05-12T10:25:05;100169.44;;;34.20;20.62
21863;BME280;11096;51.338;12.524;2023-05-12T10:27:32;100167.91;;;35.39;20.81
21863;BME280;11096;51.338;12.524;2023-05-12T10:29:59;100166.81;;;35.96;20.72
21863;BME280;11096;51.338;12.524;2023-05-12T10:32:25;100170.47;;;37.01;20.17
21863;BME280;11096;51.338;12.524;2023-05-12T10:34:52;100166.47;;;37.67;19.47
21863;BME280;11096;51.338;12.524;2023-05-12T10:37:18;100157.06;;;35.08;20.65
21863;BME280;11096;51.338;12.524;2023-05-12T10:39:48;100156.50;;;34.80;21.21
21863;BME280;11096;51.338;12.524;2023-05-12T10:42:21;100151.94;;;32.94;21.93
21863;BME280;11096;51.338;12.524;2023-05-12T10:44:51;100157.75;;;33.08;23.09
21863;BME280;11096;51.338;12.524;2023-05-12T10:47:17;100158.38;;;33.47;23.67
21863;BME280;11096;51.338;12.524;2023-05-12T10:49:43;100152.41;;;32.42;23.30
21863;BME280;11096;51.338;12.524;2023-05-12T10:52:18;100155.28;;;30.12;24.76
21863;BME280;11096;51.338;12.524;2023-05-12T10:54:44;100149.38;;;31.32;24.53
21863;BME280;11096;51.338;12.524;2023-05-12T10:57:14;100153.94;;;31.02;24.60
21863;BME280;11096;51.338;12.524;2023-05-12T10:59:49;100157.63;;;30.96;24.85
21863;BME280;11096;51.338;12.524;2023-05-12T11:02:17;100158.78;;;29.78;25.08
21863;BME280;11096;51.338;12.524;2023-05-12T11:04:55;100155.97;;;31.92;23.32
21863;BME280;11096;51.338;12.524;2023-05-12T11:07:31;100149.38;;;33.04;22.78
21863;BME280;11096;51.338;12.524;2023-05-12T11:10:00;100149.00;;;31.40;23.60
21863;BME280;11096;51.338;12.524;2023-05-12T11:12:27;100156.16;;;34.14;23.31
21863;BME280;11096;51.338;12.524;2023-05-12T11:14:53;100155.25;;;35.44;21.19
21863;BME280;11096;51.338;12.524;2023-05-12T11:17:18;100155.41;;;34.87;20.26
21863;BME280;11096;51.338;12.524;2023-05-12T11:19:46;100163.97;;;34.10;21.70
21863;BME280;11096;51.338;12.524;2023-05-12T11:22:12;100145.94;;;34.74;20.39
21863;BME280;11096;51.338;12.524;2023-05-12T11:24:40;100148.81;;;33.62;20.72
21863;BME280;11096;51.338;12.524;2023-05-12T11:27:11;100160.94;;;33.64;21.02
21863;BME280;11096;51.338;12.524;2023-05-12T11:29:37;100146.31;;;35.69;19.22
21863;BME280;11096;51.338;12.524;2023-05-12T11:32:04;100140.44;;;38.62;16.62
21863;BME280;11096;51.338;12.524;2023-05-12T11:34:30;100153.03;;;36.73;19.07
21863;BME280;11096;51.338;12.524;2023-05-12T11:36:56;100141.44;;;35.77;18.66
21863;BME280;11096;51.338;12.524;2023-05-12T11:39:24;100146.63;;;34.44;19.31
21863;BME280;11096;51.338;12.524;2023-05-12T11:41:50;100148.56;;;31.82;20.59
21863;BME280;11096;51.338;12.524;2023-05-12T11:44:17;100144.81;;;30.75;22.17
21863;BME280;11096;51.338;12.524;2023-05-12T11:49:25;100155.16;;;31.40;20.38
21863;BME280;11096;51.338;12.524;2023-05-12T11:51:53;100148.44;;;30.28;21.78
21863;BME280;11096;51.338;12.524;2023-05-12T11:54:19;100151.16;;;29.09;22.70
21863;BME280;11096;51.338;12.524;2023-05-12T11:56:50;100154.47;;;28.37;25.27
21863;BME280;11096;51.338;12.524;2023-05-12T11:59:32;100158.38;;;27.66;25.43
21863;BME280;11096;51.338;12.524;2023-05-12T12:02:00;100156.91;;;30.37;24.51
21863;BME280;11096;51.338;12.524;2023-05-12T12:04:39;100150.09;;;31.27;23.23
21863;BME280;11096;51.338;12.524;2023-05-12T12:07:08;100149.53;;;30.56;23.49
21863;BME280;11096;51.338;12.524;2023-05-12T12:09:35;100149.22;;;30.81;22.56
21863;BME280;11096;51.338;12.524;2023-05-12T12:12:02;100151.00;;;33.05;22.24
21863;BME280;11096;51.338;12.524;2023-05-12T12:14:29;100155.47;;;29.52;23.12
21863;BME280;11096;51.338;12.524;2023-05-12T12:16:56;100157.13;;;27.69;25.13
21863;BME280;11096;51.338;12.524;2023-05-12T12:19:21;100153.66;;;29.04;25.55
21863;BME280;11096;51.338;12.524;2023-05-12T12:21:47;100153.50;;;29.59;24.85
21863;BME280;11096;51.338;12.524;2023-05-12T12:24:12;100155.56;;;27.86;24.01
21863;BME280;11096;51.338;12.524;2023-05-12T12:26:37;100152.91;;;27.86;25.01
21863;BME280;11096;51.338;12.524;2023-05-12T12:29:03;100153.13;;;30.62;23.86
21863;BME280;11096;51.338;12.524;2023-05-12T12:31:29;100161.72;;;30.87;23.71
21863;BME280;11096;51.338;12.524;2023-05-12T12:33:54;100156.72;;;29.38;24.31
21863;BME280;11096;51.338;12.524;2023-05-12T12:36:20;100159.75;;;28.00;25.81
21863;BME280;11096;51.338;12.524;2023-05-12T12:38:45;100160.22;;;27.97;24.62
21863;BME280;11096;51.338;12.524;2023-05-12T12:41:12;100163.22;;;28.26;24.46
21863;BME280;11096;51.338;12.524;2023-05-12T12:43:37;100167.41;;;27.40;25.68